sensor_id;sensor_type;location;lat;lon;timestamp;pressure;altitude;pressure_sealevel;temperature;humidity
804;BME280;25687;49.976;8.240;2023-04-16T00:01:22;100169.50;;;8.10;100.00
804;BME280;25687;49.976;8.240;2023-04-16T00:03:47;100171.09;;;8.13;100.00
804;BME280;25687;49.976;8.240;2023-04-16T00:06:13;100173.72;;;8.11;100.00
804;BME280;25687;49.976;8.240;2023-04-16T00:08:38;100178.09;;;8.09;100.00
804;BME280;25687;49.976;8.240;2023-04-16T00:11:05;100179.09;;;8.05;100.00
804;BME280;25687;49.976;8.240;2023-04-16T00:13:30;100173.03;;;8.07;100.00
804;BME280;25687;49.976;8.240;2023-04-16T00:15:55;100171.84;;;8.15;100.00
804;BME280;25687;49.976;8.240;2023-04-16T00:18:21;100174.41;;;8.15;100.00
804;BME280;25687;49.976;8.240;2023-04-16T00:20:47;100178.88;;;8.30;100.00
804;BME280;25687;49.976;8.240;2023-04-16T00:23:12;100182.09;;;8.35;100.00
804;BME280;25687;49.976;8.240;2023-04-16T00:25:37;100177.56;;;8.21;100.00
804;BME280;25687;49.976;8.240;2023-04-16T00:28:04;100179.34;;;8.19;100.00
804;BME280;25687;49.976;8.240;2023-04-16T00:30:29;100180.50;;;8.12;100.00
804;BME280;25687;49.976;8.240;2023-04-16T00:32:54;100182.97;;;8.15;100.00
804;BME280;25687;49.976;8.240;2023-04-16T00:35:20;100178.91;;;8.10;100.00
804;BME280;25687;49.976;8.240;2023-04-16T00:37:45;100184.63;;;8.16;100.00
804;BME280;25687;49.976;8.240;2023-04-16T00:40:11;100193.41;;;8.11;100.00
804;BME280;25687;49.976;8.240;2023-04-16T00:42:36;100186.66;;;8.08;100.00
804;BME280;25687;49.976;8.240;2023-04-16T00:45:02;100184.28;;;8.24;100.00
804;BME280;25687;49.976;8.240;2023-04-16T00:47:28;100188.44;;;8.27;100.00
804;BME280;25687;49.976;8.240;2023-04-16T00:49:54;100203.75;;;8.28;100.00
804;BME280;25687;49.976;8.240;2023-04-16T00:52:19;100199.41;;;8.30;100.00
804;BME280;25687;49.976;8.240;2023-04-16T00:54:44;100198.44;;;8.33;100.00
804;BME280;25687;49.976;8.240;2023-04-16T00:57:12;100197.53;;;8.34;100.00
804;BME280;25687;49.976;8.240;2023-04-16T00:59:38;100201.00;;;8.33;100.00
804;BME280;25687;49.976;8.240;2023-04-16T01:02:03;100200.28;;;8.29;100.00
804;BME280;25687;49.976;8.240;2023-04-16T01:04:29;100193.75;;;8.22;100.00
804;BME280;25687;49.976;8.240;2023-04-16T01:06:54;100194.03;;;8.16;100.00
804;BME280;25687;49.976;8.240;2023-04-16T01:09:20;100200.75;;;8.18;100.00
804;BME280;25687;49.976;8.240;2023-04-16T01:11:45;100197.69;;;8.10;100.00
804;BME280;25687;49.976;8.240;2023-04-16T01:14:11;100204.34;;;8.14;100.00
804;BME280;25687;49.976;8.240;2023-04-16T01:16:36;100200.03;;;8.15;100.00
804;BME280;25687;49.976;8.240;2023-04-16T01:19:01;100202.03;;;8.29;100.00
804;BME280;25687;49.976;8.240;2023-04-16T01:21:27;100208.06;;;8.28;100.00
804;BME280;25687;49.976;8.240;2023-04-16T01:23:52;100207.16;;;8.29;100.00
804;BME280;25687;49.976;8.240;2023-04-16T01:26:17;100203.03;;;8.24;100.00
804;BME280;25687;49.976;8.240;2023-04-16T01:28:42;100198.50;;;8.11;100.00
804;BME280;25687;49.976;8.240;2023-04-16T01:31:08;100208.00;;;8.08;100.00
804;BME280;25687;49.976;8.240;2023-04-16T01:33:33;100204.72;;;8.05;100.00
804;BME280;25687;49.976;8.240;2023-04-16T01:35:58;100199.03;;;7.98;100.00
804;BME280;25687;49.976;8.240;2023-04-16T01:38:24;100200.78;;;7.98;100.00
804;BME280;25687;49.976;8.240;2023-04-16T01:40:49;100208.47;;;7.98;100.00
804;BME280;25687;49.976;8.240;2023-04-16T01:43:14;100208.47;;;7.98;100.00
804;BME280;25687;49.976;8.240;2023-04-16T01:45:41;100200.31;;;8.08;100.00
804;BME280;25687;49.976;8.240;2023-04-16T01:48:07;100197.00;;;8.06;100.00
804;BME280;25687;49.976;8.240;2023-04-16T01:50:33;100204.31;;;7.95;100.00
804;BME280;25687;49.976;8.240;2023-04-16T01:52:58;100202.88;;;7.88;100.00
804;BME280;25687;49.976;8.240;2023-04-16T01:55:25;100197.50;;;7.94;100.00
804;BME280;25687;49.976;8.240;2023-04-16T01:57:51;100202.63;;;7.94;100.00
804;BME280;25687;49.976;8.240;2023-04-16T02:00:16;100204.09;;;8.00;100.00
804;BME280;25687;49.976;8.240;2023-04-16T02:02:41;100210.81;;;8.02;100.00
804;BME280;25687;49.976;8.240;2023-04-16T02:05:07;100208.47;;;7.98;100.00
804;BME280;25687;49.976;8.240;2023-04-16T02:07:32;100208.84;;;8.09;100.00
804;BME280;25687;49.976;8.240;2023-04-16T02:09:57;100211.84;;;7.98;100.00
804;BME280;25687;49.976;8.240;2023-04-16T02:12:23;100200.06;;;7.94;100.00
804;BME280;25687;49.976;8.240;2023-04-16T02:14:48;100209.44;;;7.95;100.00
804;BME280;25687;49.976;8.240;2023-04-16T02:17:13;100210.88;;;8.01;100.00
804;BME280;25687;49.976;8.240;2023-04-16T02:19:40;100206.53;;;8.03;100.00
804;BME280;25687;49.976;8.240;2023-04-16T02:22:05;100215.63;;;8.10;100.00
804;BME280;25687;49.976;8.240;2023-04-16T02:24:31;100217.97;;;8.15;100.00
804;BME280;25687;49.976;8.240;2023-04-16T02:26:56;100229.78;;;8.19;100.00
804;BME280;25687;49.976;8.240;2023-04-16T02:29:22;100231.63;;;8.15;100.00
804;BME280;25687;49.976;8.240;2023-04-16T02:31:48;100235.97;;;8.13;100.00
804;BME280;25687;49.976;8.240;2023-04-16T02:34:14;100234.53;;;8.07;100.00
804;BME280;25687;49.976;8.240;2023-04-16T02:36:39;100236.50;;;8.01;100.00
804;BME280;25687;49.976;8.240;2023-04-16T02:39:05;100227.03;;;8.03;100.00
804;BME280;25687;49.976;8.240;2023-04-16T02:41:30;100235.16;;;8.13;100.00
804;BME280;25687;49.976;8.240;2023-04-16T02:43:55;100232.47;;;8.16;100.00
804;BME280;25687;49.976;8.240;2023-04-16T02:46:21;100232.00;;;8.06;100.00
804;BME280;25687;49.976;8.240;2023-04-16T02:48:46;100229.97;;;8.14;100.00
804;BME280;25687;49.976;8.240;2023-04-16T02:51:12;100222.41;;;8.11;100.00
804;BME280;25687;49.976;8.240;2023-04-16T02:53:37;100229.00;;;8.17;100.00
804;BME280;25687;49.976;8.240;2023-04-16T02:56:02;100228.47;;;8.08;100.00
804;BME280;25687;49.976;8.240;2023-04-16T02:58:27;100227.41;;;8.14;100.00
804;BME280;25687;49.976;8.240;2023-04-16T03:00:53;100225.91;;;8.08;100.00
804;BME280;25687;49.976;8.240;2023-04-16T03:03:19;100232.78;;;8.08;100.00
804;BME280;25687;49.976;8.240;2023-04-16T03:05:45;100230.84;;;8.13;100.00
804;BME280;25687;49.976;8.240;2023-04-16T03:08:11;100227.47;;;8.13;100.00
804;BME280;25687;49.976;8.240;2023-04-16T03:10:36;100229.38;;;8.28;100.00
804;BME280;25687;49.976;8.240;2023-04-16T03:13:02;100227.78;;;8.26;100.00
804;BME280;25687;49.976;8.240;2023-04-16T03:15:28;100232.53;;;8.14;100.00
804;BME280;25687;49.976;8.240;2023-04-16T03:17:53;100238.44;;;8.16;100.00
804;BME280;25687;49.976;8.240;2023-04-16T03:20:18;100241.09;;;8.13;100.00
804;BME280;25687;49.976;8.240;2023-04-16T03:22:45;100229.19;;;8.12;100.00
804;BME280;25687;49.976;8.240;2023-04-16T03:25:10;100229.81;;;8.17;100.00
804;BME280;25687;49.976;8.240;2023-04-16T03:27:36;100226.09;;;8.24;100.00
804;BME280;25687;49.976;8.240;2023-04-16T03:30:01;100220.28;;;8.21;100.00
804;BME280;25687;49.976;8.240;2023-04-16T03:32:27;100230.59;;;8.19;100.00
804;BME280;25687;49.976;8.240;2023-04-16T03:34:52;100227.41;;;8.14;100.00
804;BME280;25687;49.976;8.240;2023-04-16T03:37:17;100233.81;;;8.04;100.00
804;BME280;25687;49.976;8.240;2023-04-16T03:39:43;100229.69;;;8.00;100.00
804;BME280;25687;49.976;8.240;2023-04-16T03:42:08;100240.53;;;8.06;100.00
804;BME280;25687;49.976;8.240;2023-04-16T03:44:34;100242.72;;;7.95;100.00
804;BME280;25687;49.976;8.240;2023-04-16T03:47:00;100234.97;;;7.97;100.00
804;BME280;25687;49.976;8.240;2023-04-16T03:49:25;100240.16;;;7.95;100.00
804;BME280;25687;49.976;8.240;2023-04-16T03:51:50;100243.75;;;8.12;100.00
804;BME280;25687;49.976;8.240;2023-04-16T03:54:16;100244.72;;;8.09;100.00
804;BME280;25687;49.976;8.240;2023-04-16T03:56:41;100247.50;;;8.23;100.00
804;BME280;25687;49.976;8.240;2023-04-16T03:59:07;100245.34;;;8.14;100.00
804;BME280;25687;49.976;8.240;2023-04-16T04:01:32;100249.75;;;8.11;100.00
804;BME280;25687;49.976;8.240;2023-04-16T04:03:58;100263.22;;;8.16;100.00
804;BME280;25687;49.976;8.240;2023-04-16T04:06:23;100255.97;;;8.26;100.00
804;BME280;25687;49.976;8.240;2023-04-16T04:08:48;100262.56;;;8.31;100.00
804;BME280;25687;49.976;8.240;2023-04-16T04:11:13;100257.63;;;8.27;100.00
804;BME280;25687;49.976;8.240;2023-04-16T04:13:39;100258.84;;;8.38;100.00
804;BME280;25687;49.976;8.240;2023-04-16T04:16:04;100261.41;;;8.38;100.00
804;BME280;25687;49.976;8.240;2023-04-16T04:18:30;100264.50;;;8.26;100.00
804;BME280;25687;49.976;8.240;2023-04-16T04:20:56;100261.09;;;8.26;100.00
804;BME280;25687;49.976;8.240;2023-04-16T04:23:21;100254.63;;;8.17;100.00
804;BME280;25687;49.976;8.240;2023-04-16T04:25:47;100265.59;;;8.20;100.00
804;BME280;25687;49.976;8.240;2023-04-16T04:28:12;100266.09;;;8.29;100.00
804;BME280;25687;49.976;8.240;2023-04-16T04:30:37;100267.75;;;8.30;100.00
804;BME280;25687;49.976;8.240;2023-04-16T04:33:03;100270.53;;;8.25;100.00
804;BME280;25687;49.976;8.240;2023-04-16T04:35:28;100264.09;;;8.35;100.00
804;BME280;25687;49.976;8.240;2023-04-16T04:37:53;100262.84;;;8.25;100.00
804;BME280;25687;49.976;8.240;2023-04-16T04:40:19;100255.53;;;8.36;100.00
804;BME280;25687;49.976;8.240;2023-04-16T04:42:44;100261.78;;;8.29;100.00
804;BME280;25687;49.976;8.240;2023-04-16T04:45:09;100267.25;;;8.21;100.00
804;BME280;25687;49.976;8.240;2023-04-16T04:47:35;100267.97;;;8.25;100.00
804;BME280;25687;49.976;8.240;2023-04-16T04:50:00;100264.19;;;8.34;100.00
804;BME280;25687;49.976;8.240;2023-04-16T04:52:26;100265.00;;;8.34;100.00
804;BME280;25687;49.976;8.240;2023-04-16T04:54:51;100270.97;;;8.35;100.00
804;BME280;25687;49.976;8.240;2023-04-16T04:57:17;100275.16;;;8.36;100.00
804;BME280;25687;49.976;8.240;2023-04-16T04:59:42;100276.53;;;8.24;100.00
804;BME280;25687;49.976;8.240;2023-04-16T05:02:07;100276.53;;;8.24;100.00
804;BME280;25687;49.976;8.240;2023-04-16T05:04:32;100277.19;;;8.29;100.00
804;BME280;25687;49.976;8.240;2023-04-16T05:06:58;100275.44;;;8.30;100.00
804;BME280;25687;49.976;8.240;2023-04-16T05:09:23;100278.91;;;8.49;100.00
804;BME280;25687;49.976;8.240;2023-04-16T05:11:48;100286.13;;;8.39;100.00
804;BME280;25687;49.976;8.240;2023-04-16T05:14:13;100291.41;;;8.36;100.00
804;BME280;25687;49.976;8.240;2023-04-16T05:16:39;100297.31;;;8.38;100.00
804;BME280;25687;49.976;8.240;2023-04-16T05:19:04;100296.72;;;8.32;100.00
804;BME280;25687;49.976;8.240;2023-04-16T05:21:29;100311.66;;;8.43;100.00
804;BME280;25687;49.976;8.240;2023-04-16T05:23:55;100311.97;;;8.35;100.00
804;BME280;25687;49.976;8.240;2023-04-16T05:26:20;100313.59;;;8.37;100.00
804;BME280;25687;49.976;8.240;2023-04-16T05:28:46;100310.94;;;8.39;100.00
804;BME280;25687;49.976;8.240;2023-04-16T05:31:12;100304.09;;;8.19;100.00
804;BME280;25687;49.976;8.240;2023-04-16T05:33:37;100309.19;;;8.39;100.00
804;BME280;25687;49.976;8.240;2023-04-16T05:36:02;100314.47;;;8.36;100.00
804;BME280;25687;49.976;8.240;2023-04-16T05:38:28;100327.16;;;8.39;100.00
804;BME280;25687;49.976;8.240;2023-04-16T05:40:53;100329.91;;;8.35;100.00
804;BME280;25687;49.976;8.240;2023-04-16T05:43:18;100332.06;;;8.23;100.00
804;BME280;25687;49.976;8.240;2023-04-16T05:45:43;100339.19;;;8.17;100.00
804;BME280;25687;49.976;8.240;2023-04-16T05:48:09;100341.88;;;8.14;100.00
804;BME280;25687;49.976;8.240;2023-04-16T05:50:35;100346.22;;;8.12;100.00
804;BME280;25687;49.976;8.240;2023-04-16T05:53:05;100345.03;;;8.20;100.00
804;BME280;25687;49.976;8.240;2023-04-16T05:55:31;100339.25;;;8.15;100.00
804;BME280;25687;49.976;8.240;2023-04-16T05:57:56;100344.19;;;8.20;100.00
804;BME280;25687;49.976;8.240;2023-04-16T06:00:22;100346.94;;;8.15;100.00
804;BME280;25687;49.976;8.240;2023-04-16T06:02:47;100352.31;;;8.09;100.00
804;BME280;25687;49.976;8.240;2023-04-16T06:05:13;100346.06;;;8.16;100.00
804;BME280;25687;49.976;8.240;2023-04-16T06:07:38;100349.41;;;8.39;100.00
804;BME280;25687;49.976;8.240;2023-04-16T06:10:04;100353.25;;;8.49;100.00
804;BME280;25687;49.976;8.240;2023-04-16T06:12:29;100333.84;;;8.44;100.00
804;BME280;25687;49.976;8.240;2023-04-16T06:14:55;100349.50;;;8.36;100.00
804;BME280;25687;49.976;8.240;2023-04-16T06:17:20;100349.13;;;8.24;100.00
804;BME280;25687;49.976;8.240;2023-04-16T06:19:45;100347.91;;;8.33;100.00
804;BME280;25687;49.976;8.240;2023-04-16T06:22:10;100343.56;;;8.35;100.00
804;BME280;25687;49.976;8.240;2023-04-16T06:24:36;100348.63;;;8.37;100.00
804;BME280;25687;49.976;8.240;2023-04-16T06:27:01;100346.13;;;8.35;100.00
804;BME280;25687;49.976;8.240;2023-04-16T06:29:27;100341.53;;;8.44;100.00
804;BME280;25687;49.976;8.240;2023-04-16T06:31:52;100354.88;;;8.30;100.00
804;BME280;25687;49.976;8.240;2023-04-16T06:34:18;100350.59;;;8.30;100.00
804;BME280;25687;49.976;8.240;2023-04-16T06:36:43;100346.41;;;8.50;100.00
804;BME280;25687;49.976;8.240;2023-04-16T06:39:08;100347.94;;;8.54;100.00
804;BME280;25687;49.976;8.240;2023-04-16T06:41:34;100354.81;;;8.53;100.00
804;BME280;25687;49.976;8.240;2023-04-16T06:43:59;100352.19;;;8.55;100.00
804;BME280;25687;49.976;8.240;2023-04-16T06:46:24;100361.84;;;8.69;100.00
804;BME280;25687;49.976;8.240;2023-04-16T06:48:50;100352.75;;;8.62;100.00
804;BME280;25687;49.976;8.240;2023-04-16T06:51:15;100356.53;;;8.74;100.00
804;BME280;25687;49.976;8.240;2023-04-16T06:53:40;100351.03;;;8.62;100.00
804;BME280;25687;49.976;8.240;2023-04-16T06:56:06;100355.84;;;8.70;100.00
804;BME280;25687;49.976;8.240;2023-04-16T06:58:32;100358.75;;;8.81;100.00
804;BME280;25687;49.976;8.240;2023-04-16T07:00:57;100363.00;;;8.62;100.00
804;BME280;25687;49.976;8.240;2023-04-16T07:03:23;100358.56;;;8.86;100.00
804;BME280;25687;49.976;8.240;2023-04-16T07:05:48;100365.66;;;9.00;100.00
804;BME280;25687;49.976;8.240;2023-04-16T07:08:13;100365.06;;;8.74;100.00
804;BME280;25687;49.976;8.240;2023-04-16T07:10:39;100358.25;;;8.73;100.00
804;BME280;25687;49.976;8.240;2023-04-16T07:13:04;100365.97;;;8.52;100.00
804;BME280;25687;49.976;8.240;2023-04-16T07:15:29;100366.78;;;8.32;100.00
804;BME280;25687;49.976;8.240;2023-04-16T07:17:55;100376.34;;;8.27;100.00
804;BME280;25687;49.976;8.240;2023-04-16T07:20:20;100372.75;;;8.11;100.00
804;BME280;25687;49.976;8.240;2023-04-16T07:22:45;100374.97;;;7.98;100.00
804;BME280;25687;49.976;8.240;2023-04-16T07:25:11;100368.34;;;7.92;100.00
804;BME280;25687;49.976;8.240;2023-04-16T07:27:36;100377.09;;;8.08;100.00
804;BME280;25687;49.976;8.240;2023-04-16T07:30:02;100369.16;;;8.15;100.00
804;BME280;25687;49.976;8.240;2023-04-16T07:32:28;100376.00;;;8.36;100.00
804;BME280;25687;49.976;8.240;2023-04-16T07:34:53;100368.78;;;8.46;100.00
804;BME280;25687;49.976;8.240;2023-04-16T07:37:18;100369.91;;;8.39;100.00
804;BME280;25687;49.976;8.240;2023-04-16T07:39:43;100383.94;;;8.30;100.00
804;BME280;25687;49.976;8.240;2023-04-16T07:42:09;100382.72;;;8.39;100.00
804;BME280;25687;49.976;8.240;2023-04-16T07:44:34;100381.34;;;8.52;100.00
804;BME280;25687;49.976;8.240;2023-04-16T07:46:59;100382.06;;;8.56;100.00
804;BME280;25687;49.976;8.240;2023-04-16T07:49:25;100383.28;;;8.46;100.00
804;BME280;25687;49.976;8.240;2023-04-16T07:51:50;100386.47;;;8.52;100.00
804;BME280;25687;49.976;8.240;2023-04-16T07:54:15;100384.22;;;8.45;100.00
804;BME280;25687;49.976;8.240;2023-04-16T07:56:41;100388.41;;;8.46;100.00
804;BME280;25687;49.976;8.240;2023-04-16T07:59:06;100388.50;;;8.44;100.00
804;BME280;25687;49.976;8.240;2023-04-16T08:01:31;100390.22;;;8.44;100.00
804;BME280;25687;49.976;8.240;2023-04-16T08:03:57;100398.34;;;8.55;100.00
804;BME280;25687;49.976;8.240;2023-04-16T08:06:22;100405.00;;;8.59;100.00
804;BME280;25687;49.976;8.240;2023-04-16T08:08:47;100408.78;;;8.50;100.00
804;BME280;25687;49.976;8.240;2023-04-16T08:11:13;100413.19;;;8.47;100.00
804;BME280;25687;49.976;8.240;2023-04-16T08:13:39;100410.28;;;8.56;100.00
804;BME280;25687;49.976;8.240;2023-04-16T08:16:04;100416.28;;;8.55;100.00
804;BME280;25687;49.976;8.240;2023-04-16T08:18:30;100412.88;;;8.54;100.00
804;BME280;25687;49.976;8.240;2023-04-16T08:20:55;100404.72;;;8.45;100.00
804;BME280;25687;49.976;8.240;2023-04-16T08:23:20;100422.19;;;8.57;100.00
804;BME280;25687;49.976;8.240;2023-04-16T08:25:46;100414.69;;;8.52;100.00
804;BME280;25687;49.976;8.240;2023-04-16T08:28:11;100417.50;;;8.46;100.00
804;BME280;25687;49.976;8.240;2023-04-16T08:30:37;100425.19;;;8.67;100.00
804;BME280;25687;49.976;8.240;2023-04-16T08:33:02;100431.16;;;8.67;100.00
804;BME280;25687;49.976;8.240;2023-04-16T08:35:27;100429.56;;;8.65;100.00
804;BME280;25687;49.976;8.240;2023-04-16T08:37:53;100435.25;;;8.71;100.00
804;BME280;25687;49.976;8.240;2023-04-16T08:40:18;100430.28;;;8.68;100.00
804;BME280;25687;49.976;8.240;2023-04-16T08:42:54;100425.59;;;8.78;100.00
804;BME280;25687;49.976;8.240;2023-04-16T08:45:20;100429.50;;;8.87;100.00
804;BME280;25687;49.976;8.240;2023-04-16T08:47:50;100439.19;;;8.80;100.00
804;BME280;25687;49.976;8.240;2023-04-16T08:50:18;100435.09;;;8.76;100.00
804;BME280;25687;49.976;8.240;2023-04-16T08:52:57;100442.88;;;8.73;100.00
804;BME280;25687;49.976;8.240;2023-04-16T08:55:28;100448.97;;;8.70;100.00
804;BME280;25687;49.976;8.240;2023-04-16T08:57:59;100451.88;;;8.83;100.00
804;BME280;25687;49.976;8.240;2023-04-16T09:00:25;100443.22;;;8.86;100.00
804;BME280;25687;49.976;8.240;2023-04-16T09:02:52;100444.69;;;8.92;100.00
804;BME280;25687;49.976;8.240;2023-04-16T09:05:18;100454.56;;;9.01;100.00
804;BME280;25687;49.976;8.240;2023-04-16T09:07:46;100450.19;;;9.24;100.00
804;BME280;25687;49.976;8.240;2023-04-16T09:10:13;100448.25;;;9.29;100.00
804;BME280;25687;49.976;8.240;2023-04-16T09:12:42;100445.47;;;9.33;100.00
804;BME280;25687;49.976;8.240;2023-04-16T09:15:12;100451.13;;;9.42;100.00
804;BME280;25687;49.976;8.240;2023-04-16T09:17:38;100456.38;;;9.39;100.00
804;BME280;25687;49.976;8.240;2023-04-16T09:20:05;100457.22;;;9.39;100.00
804;BME280;25687;49.976;8.240;2023-04-16T09:22:33;100454.19;;;9.69;100.00
804;BME280;25687;49.976;8.240;2023-04-16T09:24:58;100455.50;;;9.97;100.00
804;BME280;25687;49.976;8.240;2023-04-16T09:27:23;100449.03;;;9.88;100.00
804;BME280;25687;49.976;8.240;2023-04-16T09:29:49;100442.50;;;10.00;100.00
804;BME280;25687;49.976;8.240;2023-04-16T09:32:15;100452.84;;;10.17;100.00
804;BME280;25687;49.976;8.240;2023-04-16T09:37:19;100450.78;;;10.78;100.00
804;BME280;25687;49.976;8.240;2023-04-16T09:39:52;100459.84;;;11.03;100.00
804;BME280;25687;49.976;8.240;2023-04-16T09:42:23;100452.47;;;10.79;100.00
804;BME280;25687;49.976;8.240;2023-04-16T09:44:49;100458.41;;;10.97;100.00
804;BME280;25687;49.976;8.240;2023-04-16T09:47:14;100454.44;;;10.74;100.00
804;BME280;25687;49.976;8.240;2023-04-16T09:49:40;100462.44;;;10.51;100.00
804;BME280;25687;49.976;8.240;2023-04-16T09:52:17;100462.91;;;10.76;100.00
804;BME280;25687;49.976;8.240;2023-04-16T09:54:46;100464.66;;;11.27;100.00
804;BME280;25687;49.976;8.240;2023-04-16T09:57:11;100461.94;;;11.46;100.00
804;BME280;25687;49.976;8.240;2023-04-16T09:59:37;100458.88;;;11.39;100.00
804;BME280;25687;49.976;8.240;2023-04-16T10:02:02;100469.97;;;11.06;100.00
804;BME280;25687;49.976;8.240;2023-04-16T10:04:27;100477.34;;;11.14;100.00
804;BME280;25687;49.976;8.240;2023-04-16T10:07:03;100469.38;;;11.01;100.00
804;BME280;25687;49.976;8.240;2023-04-16T10:09:36;100474.97;;;11.27;100.00
804;BME280;25687;49.976;8.240;2023-04-16T10:12:02;100483.16;;;11.51;100.00
804;BME280;25687;49.976;8.240;2023-04-16T10:14:27;100482.72;;;11.09;100.00
804;BME280;25687;49.976;8.240;2023-04-16T10:16:54;100482.47;;;11.32;100.00
804;BME280;25687;49.976;8.240;2023-04-16T10:19:20;100489.59;;;11.26;100.00
804;BME280;25687;49.976;8.240;2023-04-16T10:21:46;100490.13;;;11.49;100.00
804;BME280;25687;49.976;8.240;2023-04-16T10:24:12;100492.38;;;11.55;100.00
804;BME280;25687;49.976;8.240;2023-04-16T10:26:42;100489.75;;;11.06;100.00
804;BME280;25687;49.976;8.240;2023-04-16T10:29:11;100497.25;;;11.10;100.00
804;BME280;25687;49.976;8.240;2023-04-16T10:31:37;100502.78;;;10.85;100.00
804;BME280;25687;49.976;8.240;2023-04-16T10:34:04;100507.25;;;10.81;100.00
804;BME280;25687;49.976;8.240;2023-04-16T10:36:30;100501.13;;;10.84;100.00
804;BME280;25687;49.976;8.240;2023-04-16T10:38:57;100504.59;;;11.01;100.00
804;BME280;25687;49.976;8.240;2023-04-16T10:41:24;100510.34;;;11.23;100.00
804;BME280;25687;49.976;8.240;2023-04-16T10:43:50;100509.03;;;11.32;100.00
804;BME280;25687;49.976;8.240;2023-04-16T10:48:42;100511.81;;;11.45;100.00
804;BME280;25687;49.976;8.240;2023-04-16T10:51:22;100507.16;;;11.18;100.00
804;BME280;25687;49.976;8.240;2023-04-16T10:53:48;100500.97;;;11.05;100.00
804;BME280;25687;49.976;8.240;2023-04-16T10:56:13;100503.44;;;11.06;100.00
804;BME280;25687;49.976;8.240;2023-04-16T10:58:39;100511.03;;;11.09;100.00
804;BME280;25687;49.976;8.240;2023-04-16T11:01:06;100514.06;;;11.18;100.00
804;BME280;25687;49.976;8.240;2023-04-16T11:03:34;100511.25;;;11.05;100.00
804;BME280;25687;49.976;8.240;2023-04-16T11:06:43;100507.78;;;11.06;100.00
804;BME280;25687;49.976;8.240;2023-04-16T11:09:01;100507.50;;;10.77;100.00
804;BME280;25687;49.976;8.240;2023-04-16T11:11:36;100513.03;;;10.50;100.00
804;BME280;25687;49.976;8.240;2023-04-16T11:14:03;100508.47;;;10.57;100.00
804;BME280;25687;49.976;8.240;2023-04-16T11:16:30;100505.88;;;10.57;100.00
804;BME280;25687;49.976;8.240;2023-04-16T11:18:55;100516.47;;;10.51;100.00
804;BME280;25687;49.976;8.240;2023-04-16T11:21:21;100503.41;;;10.36;100.00
804;BME280;25687;49.976;8.240;2023-04-16T11:23:51;100509.78;;;10.27;100.00
804;BME280;25687;49.976;8.240;2023-04-16T11:26:25;100509.72;;;10.29;100.00
804;BME280;25687;49.976;8.240;2023-04-16T11:28:52;100506.44;;;10.25;100.00
804;BME280;25687;49.976;8.240;2023-04-16T11:31:18;100507.16;;;10.29;100.00
804;BME280;25687;49.976;8.240;2023-04-16T11:33:43;100510.81;;;10.23;100.00
804;BME280;25687;49.976;8.240;2023-04-16T11:36:08;100518.06;;;10.15;100.00
804;BME280;25687;49.976;8.240;2023-04-16T11:38:35;100510.81;;;10.23;100.00
804;BME280;25687;49.976;8.240;2023-04-16T11:41:01;100512.50;;;10.43;100.00
804;BME280;25687;49.976;8.240;2023-04-16T11:43:26;100516.38;;;10.52;100.00
804;BME280;25687;49.976;8.240;2023-04-16T11:48:20;100513.06;;;10.12;100.00
804;BME280;25687;49.976;8.240;2023-04-16T11:50:54;100516.00;;;10.42;100.00
804;BME280;25687;49.976;8.240;2023-04-16T11:53:19;100512.47;;;10.62;100.00
804;BME280;25687;49.976;8.240;2023-04-16T11:55:45;100508.91;;;10.65;100.00
804;BME280;25687;49.976;8.240;2023-04-16T11:58:12;100511.03;;;10.74;100.00
804;BME280;25687;49.976;8.240;2023-04-16T12:00:39;100513.06;;;10.85;100.00
804;BME280;25687;49.976;8.240;2023-04-16T12:03:05;100511.47;;;11.00;100.00
804;BME280;25687;49.976;8.240;2023-04-16T12:05:31;100510.38;;;10.88;100.00
804;BME280;25687;49.976;8.240;2023-04-16T12:07:59;100503.31;;;11.09;100.00
804;BME280;25687;49.976;8.240;2023-04-16T12:10:25;100509.50;;;11.23;100.00
804;BME280;25687;49.976;8.240;2023-04-16T12:12:51;100506.34;;;11.18;100.00
804;BME280;25687;49.976;8.240;2023-04-16T12:15:16;100514.66;;;11.23;100.00
804;BME280;25687;49.976;8.240;2023-04-16T12:17:42;100514.22;;;11.14;100.00
804;BME280;25687;49.976;8.240;2023-04-16T12:20:08;100512.09;;;11.05;100.00
804;BME280;25687;49.976;8.240;2023-04-16T12:22:35;100514.56;;;11.24;100.00
804;BME280;25687;49.976;8.240;2023-04-16T12:25:02;100506.88;;;11.07;100.00
804;BME280;25687;49.976;8.240;2023-04-16T12:27:41;100516.25;;;11.25;100.00
804;BME280;25687;49.976;8.240;2023-04-16T12:30:06;100515.63;;;11.38;100.00
804;BME280;25687;49.976;8.240;2023-04-16T12:32:32;100515.84;;;11.33;100.00
804;BME280;25687;49.976;8.240;2023-04-16T12:34:58;100511.00;;;11.60;100.00
804;BME280;25687;49.976;8.240;2023-04-16T12:37:23;100513.28;;;11.67;100.00
804;BME280;25687;49.976;8.240;2023-04-16T12:39:48;100517.28;;;11.72;100.00
804;BME280;25687;49.976;8.240;2023-04-16T12:42:14;100516.00;;;11.97;100.00
804;BME280;25687;49.976;8.240;2023-04-16T12:44:39;100512.84;;;12.08;100.00
804;BME280;25687;49.976;8.240;2023-04-16T12:47:04;100517.44;;;11.69;100.00
804;BME280;25687;49.976;8.240;2023-04-16T12:49:30;100521.22;;;11.79;100.00
804;BME280;25687;49.976;8.240;2023-04-16T12:51:55;100518.72;;;11.94;100.00
804;BME280;25687;49.976;8.240;2023-04-16T12:54:20;100512.50;;;12.30;100.00
804;BME280;25687;49.976;8.240;2023-04-16T12:56:46;100515.59;;;12.37;100.00
804;BME280;25687;49.976;8.240;2023-04-16T12:59:11;100510.00;;;12.29;100.00
804;BME280;25687;49.976;8.240;2023-04-16T13:01:36;100511.56;;;12.31;100.00
804;BME280;25687;49.976;8.240;2023-04-16T13:04:01;100516.84;;;12.60;100.00
804;BME280;25687;49.976;8.240;2023-04-16T13:06:27;100513.09;;;12.66;100.00
804;BME280;25687;49.976;8.240;2023-04-16T13:08:52;100514.72;;;12.52;100.00